sensor_id;sensor_type;location;lat;lon;timestamp;noise_LAeq;noise_LA_min;noise_LA_max;noise_LA01;noise_LA95
67300;Laerm;57658;51.436;5.980;2022-12-16T00:00:06;50.28;28.70;64.88;;
67300;Laerm;57658;51.436;5.980;2022-12-16T00:00:17;33.35;28.64;42.92;;
67300;Laerm;57658;51.436;5.980;2022-12-16T00:00:28;30.41;28.94;33.50;;
67300;Laerm;57658;51.436;5.980;2022-12-16T00:00:38;30.80;29.19;35.83;;
67300;Laerm;57658;51.436;5.980;2022-12-16T00:00:48;32.15;28.73;40.59;;
67300;Laerm;57658;51.436;5.980;2022-12-16T00:01:05;33.57;29.53;40.79;;
67300;Laerm;57658;51.436;5.980;2022-12-16T00:01:17;32.69;29.61;40.67;;
67300;Laerm;57658;51.436;5.980;2022-12-16T00:01:28;32.17;29.43;36.74;;
67300;Laerm;57658;51.436;5.980;2022-12-16T00:01:38;32.36;29.82;36.52;;
67300;Laerm;57658;51.436;5.980;2022-12-16T00:01:48;31.67;29.55;35.11;;
67300;Laerm;57658;51.436;5.980;2022-12-16T00:01:59;31.94;29.52;34.91;;
67300;Laerm;57658;51.436;5.980;2022-12-16T00:02:09;32.36;29.17;38.39;;
67300;Laerm;57658;51.436;5.980;2022-12-16T00:02:19;32.65;30.05;37.99;;
67300;Laerm;57658;51.436;5.980;2022-12-16T00:02:30;31.73;29.61;35.52;;
67300;Laerm;57658;51.436;5.980;2022-12-16T00:02:40;31.42;29.46;34.84;;
67300;Laerm;57658;51.436;5.980;2022-12-16T00:02:51;31.50;29.19;35.27;;
67300;Laerm;57658;51.436;5.980;2022-12-16T00:03:01;32.21;29.56;35.04;;
67300;Laerm;57658;51.436;5.980;2022-12-16T00:03:11;32.40;30.15;35.86;;
67300;Laerm;57658;51.436;5.980;2022-12-16T00:03:22;32.07;30.11;34.86;;
67300;Laerm;57658;51.436;5.980;2022-12-16T00:03:32;32.28;30.13;34.70;;
67300;Laerm;57658;51.436;5.980;2022-12-16T00:03:46;31.91;29.30;35.04;;
67300;Laerm;57658;51.436;5.980;2022-12-16T00:03:57;31.69;29.03;34.71;;
67300;Laerm;57658;51.436;5.980;2022-12-16T00:04:07;32.75;29.58;35.05;;
67300;Laerm;57658;51.436;5.980;2022-12-16T00:04:18;32.51;29.73;35.12;;
67300;Laerm;57658;51.436;5.980;2022-12-16T00:04:28;32.04;29.42;34.61;;
67300;Laerm;57658;51.436;5.980;2022-12-16T00:04:38;31.63;29.15;34.17;;
67300;Laerm;57658;51.436;5.980;2022-12-16T00:04:48;30.39;28.85;31.79;;
67300;Laerm;57658;51.436;5.980;2022-12-16T00:04:59;30.20;28.93;31.66;;
67300;Laerm;57658;51.436;5.980;2022-12-16T00:05:09;30.29;28.80;31.60;;
67300;Laerm;57658;51.436;5.980;2022-12-16T00:05:19;30.64;29.37;32.11;;
67300;Laerm;57658;51.436;5.980;2022-12-16T00:05:30;30.43;28.98;31.78;;
67300;Laerm;57658;51.436;5.980;2022-12-16T00:05:40;30.48;29.10;32.07;;
67300;Laerm;57658;51.436;5.980;2022-12-16T00:05:50;30.41;29.10;32.07;;
67300;Laerm;57658;51.436;5.980;2022-12-16T00:06:00;30.42;28.47;31.57;;
67300;Laerm;57658;51.436;5.980;2022-12-16T00:06:13;30.36;28.97;31.66;;
67300;Laerm;57658;51.436;5.980;2022-12-16T00:06:25;30.39;28.97;31.87;;
67300;Laerm;57658;51.436;5.980;2022-12-16T00:06:36;30.37;29.11;31.62;;
67300;Laerm;57658;51.436;5.980;2022-12-16T00:06:46;31.32;29.32;33.45;;
67300;Laerm;57658;51.436;5.980;2022-12-16T00:06:56;31.43;29.31;33.74;;
67300;Laerm;57658;51.436;5.980;2022-12-16T00:07:06;30.52;28.65;31.79;;
67300;Laerm;57658;51.436;5.980;2022-12-16T00:07:17;31.05;29.56;32.48;;
67300;Laerm;57658;51.436;5.980;2022-12-16T00:07:27;30.93;29.29;32.50;;
67300;Laerm;57658;51.436;5.980;2022-12-16T00:07:37;30.95;29.54;32.96;;
67300;Laerm;57658;51.436;5.980;2022-12-16T00:07:48;30.60;29.04;32.31;;
67300;Laerm;57658;51.436;5.980;2022-12-16T00:07:58;31.53;29.96;33.92;;
67300;Laerm;57658;51.436;5.980;2022-12-16T00:08:08;34.18;30.38;41.19;;
67300;Laerm;57658;51.436;5.980;2022-12-16T00:08:18;33.65;30.52;37.71;;
67300;Laerm;57658;51.436;5.980;2022-12-16T00:08:33;32.59;30.28;35.54;;
67300;Laerm;57658;51.436;5.980;2022-12-16T00:08:43;31.85;29.68;35.47;;
67300;Laerm;57658;51.436;5.980;2022-12-16T00:08:54;31.80;29.80;35.38;;
67300;Laerm;57658;51.436;5.980;2022-12-16T00:09:04;31.66;29.45;34.20;;
67300;Laerm;57658;51.436;5.980;2022-12-16T00:09:14;32.04;29.69;35.61;;
67300;Laerm;57658;51.436;5.980;2022-12-16T00:09:25;30.83;28.83;34.68;;
67300;Laerm;57658;51.436;5.980;2022-12-16T00:09:35;30.35;29.00;31.78;;
67300;Laerm;57658;51.436;5.980;2022-12-16T00:09:45;30.35;28.93;31.81;;
67300;Laerm;57658;51.436;5.980;2022-12-16T00:09:55;30.62;29.10;31.97;;
67300;Laerm;57658;51.436;5.980;2022-12-16T00:10:06;30.68;29.31;33.29;;
67300;Laerm;57658;51.436;5.980;2022-12-16T00:10:17;30.55;29.36;32.02;;
67300;Laerm;57658;51.436;5.980;2022-12-16T00:10:27;30.62;29.00;32.26;;
67300;Laerm;57658;51.436;5.980;2022-12-16T00:10:58;30.56;28.54;35.84;;
67300;Laerm;57658;51.436;5.980;2022-12-16T00:11:08;30.14;28.65;31.81;;
67300;Laerm;57658;51.436;5.980;2022-12-16T00:11:18;29.87;28.46;31.33;;
67300;Laerm;57658;51.436;5.980;2022-12-16T00:11:29;29.74;28.20;30.94;;
67300;Laerm;57658;51.436;5.980;2022-12-16T00:11:41;30.18;28.41;33.18;;
67300;Laerm;57658;51.436;5.980;2022-12-16T00:11:51;30.12;28.36;32.31;;
67300;Laerm;57658;51.436;5.980;2022-12-16T00:12:01;29.58;28.04;31.16;;
67300;Laerm;57658;51.436;5.980;2022-12-16T00:12:12;29.46;28.34;30.53;;
67300;Laerm;57658;51.436;5.980;2022-12-16T00:12:22;29.63;28.40;30.92;;
67300;Laerm;57658;51.436;5.980;2022-12-16T00:12:33;29.61;28.26;31.03;;
67300;Laerm;57658;51.436;5.980;2022-12-16T00:12:43;29.68;28.31;30.74;;
67300;Laerm;57658;51.436;5.980;2022-12-16T00:12:53;30.10;28.62;31.45;;
67300;Laerm;57658;51.436;5.980;2022-12-16T00:13:04;29.87;28.46;31.17;;
67300;Laerm;57658;51.436;5.980;2022-12-16T00:13:14;30.05;28.62;31.48;;
67300;Laerm;57658;51.436;5.980;2022-12-16T00:13:24;30.63;29.11;32.35;;
67300;Laerm;57658;51.436;5.980;2022-12-16T00:13:35;30.67;28.93;33.08;;
67300;Laerm;57658;51.436;5.980;2022-12-16T00:13:46;30.59;29.21;32.23;;
67300;Laerm;57658;51.436;5.980;2022-12-16T00:13:56;30.39;28.38;33.16;;
67300;Laerm;57658;51.436;5.980;2022-12-16T00:14:07;30.55;29.24;32.06;;
67300;Laerm;57658;51.436;5.980;2022-12-16T00:14:17;30.74;28.98;32.84;;
67300;Laerm;57658;51.436;5.980;2022-12-16T00:14:27;30.33;29.21;32.83;;
67300;Laerm;57658;51.436;5.980;2022-12-16T00:14:38;30.16;28.81;31.26;;
67300;Laerm;57658;51.436;5.980;2022-12-16T00:14:48;30.31;29.11;31.41;;
67300;Laerm;57658;51.436;5.980;2022-12-16T00:14:58;31.93;29.78;35.06;;
67300;Laerm;57658;51.436;5.980;2022-12-16T00:15:09;32.16;30.09;34.01;;
67300;Laerm;57658;51.436;5.980;2022-12-16T00:15:19;34.24;29.02;38.37;;
67300;Laerm;57658;51.436;5.980;2022-12-16T00:15:29;30.35;29.02;32.08;;
67300;Laerm;57658;51.436;5.980;2022-12-16T00:15:40;30.65;29.19;34.23;;
67300;Laerm;57658;51.436;5.980;2022-12-16T00:15:50;30.35;28.94;33.74;;
67300;Laerm;57658;51.436;5.980;2022-12-16T00:16:04;30.21;28.79;32.09;;
67300;Laerm;57658;51.436;5.980;2022-12-16T00:16:15;30.08;28.66;32.13;;
67300;Laerm;57658;51.436;5.980;2022-12-16T00:16:26;30.70;29.16;32.78;;
67300;Laerm;57658;51.436;5.980;2022-12-16T00:16:36;30.26;28.59;32.56;;
67300;Laerm;57658;51.436;5.980;2022-12-16T00:16:47;30.40;28.66;32.70;;
67300;Laerm;57658;51.436;5.980;2022-12-16T00:16:57;30.87;29.19;33.50;;
67300;Laerm;57658;51.436;5.980;2022-12-16T00:17:07;31.06;29.31;33.20;;
67300;Laerm;57658;51.436;5.980;2022-12-16T00:17:17;30.87;29.11;32.93;;
67300;Laerm;57658;51.436;5.980;2022-12-16T00:17:28;30.99;29.42;33.40;;
67300;Laerm;57658;51.436;5.980;2022-12-16T00:17:38;31.07;29.54;33.21;;
67300;Laerm;57658;51.436;5.980;2022-12-16T00:17:48;30.33;29.09;31.75;;
67300;Laerm;57658;51.436;5.980;2022-12-16T00:17:59;30.39;28.89;36.16;;
67300;Laerm;57658;51.436;5.980;2022-12-16T00:18:09;29.87;28.62;31.97;;
67300;Laerm;57658;51.436;5.980;2022-12-16T00:18:19;29.96;28.40;34.54;;
67300;Laerm;57658;51.436;5.980;2022-12-16T00:18:29;29.87;28.48;31.52;;
67300;Laerm;57658;51.436;5.980;2022-12-16T00:18:40;30.17;28.61;31.80;;
67300;Laerm;57658;51.436;5.980;2022-12-16T00:18:50;30.57;29.41;31.64;;
67300;Laerm;57658;51.436;5.980;2022-12-16T00:19:00;31.83;29.21;34.41;;
67300;Laerm;57658;51.436;5.980;2022-12-16T00:19:11;30.52;28.68;33.42;;
67300;Laerm;57658;51.436;5.980;2022-12-16T00:19:21;32.00;28.72;34.63;;
67300;Laerm;57658;51.436;5.980;2022-12-16T00:19:31;32.46;29.94;36.03;;
67300;Laerm;57658;51.436;5.980;2022-12-16T00:19:41;31.83;29.85;34.46;;
67300;Laerm;57658;51.436;5.980;2022-12-16T00:19:52;32.21;30.19;35.72;;
67300;Laerm;57658;51.436;5.980;2022-12-16T00:20:02;33.25;31.15;35.94;;
67300;Laerm;57658;51.436;5.980;2022-12-16T00:20:13;36.13;31.87;41.42;;
67300;Laerm;57658;51.436;5.980;2022-12-16T00:20:23;40.13;36.60;42.48;;
67300;Laerm;57658;51.436;5.980;2022-12-16T00:20:33;41.82;38.01;44.74;;
67300;Laerm;57658;51.436;5.980;2022-12-16T00:20:47;54.72;42.71;57.73;;
67300;Laerm;57658;51.436;5.980;2022-12-16T00:20:58;44.97;35.92;55.69;;
67300;Laerm;57658;51.436;5.980;2022-12-16T00:21:09;34.90;30.22;39.15;;
67300;Laerm;57658;51.436;5.980;2022-12-16T00:21:19;31.20;29.73;32.92;;
67300;Laerm;57658;51.436;5.980;2022-12-16T00:21:30;30.29;29.14;31.39;;
67300;Laerm;57658;51.436;5.980;2022-12-16T00:21:40;30.20;28.75;31.72;;
67300;Laerm;57658;51.436;5.980;2022-12-16T00:21:50;30.30;28.81;31.55;;
67300;Laerm;57658;51.436;5.980;2022-12-16T00:22:00;30.71;29.34;31.99;;
67300;Laerm;57658;51.436;5.980;2022-12-16T00:22:11;30.85;29.47;32.29;;
67300;Laerm;57658;51.436;5.980;2022-12-16T00:22:21;30.49;29.17;31.85;;
67300;Laerm;57658;51.436;5.980;2022-12-16T00:22:32;29.96;28.67;32.30;;
67300;Laerm;57658;51.436;5.980;2022-12-16T00:22:42;29.87;28.57;31.02;;
67300;Laerm;57658;51.436;5.980;2022-12-16T00:22:52;30.33;29.13;31.74;;
67300;Laerm;57658;51.436;5.980;2022-12-16T00:23:03;30.58;29.17;31.91;;
67300;Laerm;57658;51.436;5.980;2022-12-16T00:23:13;31.75;29.99;33.71;;
67300;Laerm;57658;51.436;5.980;2022-12-16T00:23:23;31.39;29.74;33.34;;
67300;Laerm;57658;51.436;5.980;2022-12-16T00:23:34;31.16;29.60;32.71;;
67300;Laerm;57658;51.436;5.980;2022-12-16T00:23:45;30.37;29.17;31.51;;
67300;Laerm;57658;51.436;5.980;2022-12-16T00:23:56;30.18;29.00;31.45;;
67300;Laerm;57658;51.436;5.980;2022-12-16T00:24:06;31.19;29.18;32.83;;
67300;Laerm;57658;51.436;5.980;2022-12-16T00:24:16;31.48;29.95;33.15;;
67300;Laerm;57658;51.436;5.980;2022-12-16T00:24:26;30.90;29.28;32.69;;
67300;Laerm;57658;51.436;5.980;2022-12-16T00:24:37;30.61;29.44;32.15;;
67300;Laerm;57658;51.436;5.980;2022-12-16T00:24:47;31.98;29.08;38.41;;
67300;Laerm;57658;51.436;5.980;2022-12-16T00:24:57;39.59;33.30;44.45;;
67300;Laerm;57658;51.436;5.980;2022-12-16T00:25:08;44.18;40.68;47.37;;
67300;Laerm;57658;51.436;5.980;2022-12-16T00:25:18;45.93;43.39;50.45;;
67300;Laerm;57658;51.436;5.980;2022-12-16T00:25:28;43.06;37.99;46.03;;
67300;Laerm;57658;51.436;5.980;2022-12-16T00:25:40;35.59;32.11;40.21;;
67300;Laerm;57658;51.436;5.980;2022-12-16T00:25:50;33.02;31.04;35.10;;
67300;Laerm;57658;51.436;5.980;2022-12-16T00:26:01;34.34;31.74;37.14;;
67300;Laerm;57658;51.436;5.980;2022-12-16T00:26:11;31.72;30.21;33.56;;
67300;Laerm;57658;51.436;5.980;2022-12-16T00:26:21;31.51;29.85;33.06;;
67300;Laerm;57658;51.436;5.980;2022-12-16T00:26:32;31.70;29.26;34.19;;
67300;Laerm;57658;51.436;5.980;2022-12-16T00:26:42;30.59;29.08;31.79;;
67300;Laerm;57658;51.436;5.980;2022-12-16T00:26:52;30.46;28.98;31.61;;
67300;Laerm;57658;51.436;5.980;2022-12-16T00:27:03;30.11;28.22;32.96;;
67300;Laerm;57658;51.436;5.980;2022-12-16T00:27:13;30.10;28.58;31.69;;
67300;Laerm;57658;51.436;5.980;2022-12-16T00:27:23;30.42;29.00;32.62;;
67300;Laerm;57658;51.436;5.980;2022-12-16T00:27:33;31.85;29.61;36.67;;
67300;Laerm;57658;51.436;5.980;2022-12-16T00:27:44;33.33;30.19;37.30;;
67300;Laerm;57658;51.436;5.980;2022-12-16T00:27:54;34.38;30.79;41.98;;
67300;Laerm;57658;51.436;5.980;2022-12-16T00:28:04;35.32;30.59;42.07;;
67300;Laerm;57658;51.436;5.980;2022-12-16T00:28:15;35.30;30.68;44.36;;
67300;Laerm;57658;51.436;5.980;2022-12-16T00:28:25;33.57;30.72;38.40;;
67300;Laerm;57658;51.436;5.980;2022-12-16T00:28:36;33.32;30.38;37.77;;
67300;Laerm;57658;51.436;5.980;2022-12-16T00:28:47;34.23;30.38;39.63;;
67300;Laerm;57658;51.436;5.980;2022-12-16T00:28:57;33.09;30.43;36.03;;
67300;Laerm;57658;51.436;5.980;2022-12-16T00:29:08;32.36;29.11;34.54;;
67300;Laerm;57658;51.436;5.980;2022-12-16T00:29:20;33.03;30.37;37.03;;
67300;Laerm;57658;51.436;5.980;2022-12-16T00:29:30;33.06;30.36;35.53;;
67300;Laerm;57658;51.436;5.980;2022-12-16T00:29:40;32.29;29.33;36.13;;
67300;Laerm;57658;51.436;5.980;2022-12-16T00:29:50;32.78;30.35;37.04;;
67300;Laerm;57658;51.436;5.980;2022-12-16T00:30:01;32.17;29.82;35.51;;
67300;Laerm;57658;51.436;5.980;2022-12-16T00:30:11;31.43;29.47;33.82;;
67300;Laerm;57658;51.436;5.980;2022-12-16T00:30:22;30.94;28.71;32.45;;
67300;Laerm;57658;51.436;5.980;2022-12-16T00:30:32;31.43;29.48;37.67;;
67300;Laerm;57658;51.436;5.980;2022-12-16T00:30:42;30.84;29.37;32.30;;
67300;Laerm;57658;51.436;5.980;2022-12-16T00:30:54;30.65;29.05;32.44;;
67300;Laerm;57658;51.436;5.980;2022-12-16T00:31:05;30.46;28.96;32.25;;
67300;Laerm;57658;51.436;5.980;2022-12-16T00:31:15;30.65;29.34;32.34;;
67300;Laerm;57658;51.436;5.980;2022-12-16T00:31:25;31.17;29.57;33.78;;
67300;Laerm;57658;51.436;5.980;2022-12-16T00:31:36;31.22;29.46;33.76;;
67300;Laerm;57658;51.436;5.980;2022-12-16T00:31:46;31.27;29.51;33.95;;
67300;Laerm;57658;51.436;5.980;2022-12-16T00:31:57;32.99;29.83;37.20;;
67300;Laerm;57658;51.436;5.980;2022-12-16T00:32:07;30.78;29.20;32.23;;
67300;Laerm;57658;51.436;5.980;2022-12-16T00:32:17;30.43;29.08;31.93;;
67300;Laerm;57658;51.436;5.980;2022-12-16T00:32:28;30.19;28.92;31.33;;
67300;Laerm;57658;51.436;5.980;2022-12-16T00:32:38;30.11;28.71;31.79;;
67300;Laerm;57658;51.436;5.980;2022-12-16T00:32:48;30.11;28.72;31.33;;
67300;Laerm;57658;51.436;5.980;2022-12-16T00:32:58;30.27;28.98;31.52;;
67300;Laerm;57658;51.436;5.980;2022-12-16T00:33:09;30.23;28.90;31.61;;
67300;Laerm;57658;51.436;5.980;2022-12-16T00:33:19;30.59;28.83;33.53;;
67300;Laerm;57658;51.436;5.980;2022-12-16T00:33:30;31.93;29.82;34.93;;
67300;Laerm;57658;51.436;5.980;2022-12-16T00:33:40;31.53;28.74;34.30;;
67300;Laerm;57658;51.436;5.980;2022-12-16T00:33:54;31.54;29.23;35.81;;
67300;Laerm;57658;51.436;5.980;2022-12-16T00:34:04;31.34;28.60;34.97;;
67300;Laerm;57658;51.436;5.980;2022-12-16T00:34:15;31.38;29.14;33.94;;
67300;Laerm;57658;51.436;5.980;2022-12-16T00:34:25;31.51;29.06;34.39;;
67300;Laerm;57658;51.436;5.980;2022-12-16T00:34:36;31.51;29.23;34.59;;
67300;Laerm;57658;51.436;5.980;2022-12-16T00:34:46;30.11;28.32;32.79;;
67300;Laerm;57658;51.436;5.980;2022-12-16T00:34:56;29.62;28.24;31.29;;
67300;Laerm;57658;51.436;5.980;2022-12-16T00:35:07;29.59;28.06;30.78;;
67300;Laerm;57658;51.436;5.980;2022-12-16T00:35:17;29.66;28.35;31.05;;
67300;Laerm;57658;51.436;5.980;2022-12-16T00:35:28;29.70;28.12;30.89;;
67300;Laerm;57658;51.436;5.980;2022-12-16T00:35:39;29.86;28.41;31.33;;
67300;Laerm;57658;51.436;5.980;2022-12-16T00:35:49;29.63;28.22;30.64;;
67300;Laerm;57658;51.436;5.980;2022-12-16T00:36:00;29.63;28.37;30.86;;
67300;Laerm;57658;51.436;5.980;2022-12-16T00:36:10;29.47;28.00;30.59;;
67300;Laerm;57658;51.436;5.980;2022-12-16T00:36:20;29.35;28.18;31.30;;
67300;Laerm;57658;51.436;5.980;2022-12-16T00:36:31;29.29;27.91;30.45;;
67300;Laerm;57658;51.436;5.980;2022-12-16T00:36:41;29.31;28.18;30.57;;
67300;Laerm;57658;51.436;5.980;2022-12-16T00:36:52;29.35;28.30;30.66;;
67300;Laerm;57658;51.436;5.980;2022-12-16T00:37:03;29.66;27.99;35.93;;
67300;Laerm;57658;51.436;5.980;2022-12-16T00:37:13;50.76;28.62;66.08;;
67300;Laerm;57658;51.436;5.980;2022-12-16T00:37:23;29.42;28.16;30.84;;
67300;Laerm;57658;51.436;5.980;2022-12-16T00:37:33;29.47;28.45;30.66;;
67300;Laerm;57658;51.436;5.980;2022-12-16T00:37:45;29.43;28.34;30.52;;
67300;Laerm;57658;51.436;5.980;2022-12-16T00:37:55;29.28;27.87;30.31;;
67300;Laerm;57658;51.436;5.980;2022-12-16T00:38:06;29.30;28.11;30.68;;
67300;Laerm;57658;51.436;5.980;2022-12-16T00:38:16;29.59;28.25;30.84;;
67300;Laerm;57658;51.436;5.980;2022-12-16T00:38:26;29.26;28.09;30.33;;
67300;Laerm;57658;51.436;5.980;2022-12-16T00:38:37;29.40;28.13;30.68;;
67300;Laerm;57658;51.436;5.980;2022-12-16T00:38:47;29.33;28.13;30.62;;
67300;Laerm;57658;51.436;5.980;2022-12-16T00:38:57;29.80;28.20;35.74;;
67300;Laerm;57658;51.436;5.980;2022-12-16T00:39:08;30.46;28.77;31.57;;
67300;Laerm;57658;51.436;5.980;2022-12-16T00:39:18;30.92;29.37;32.02;;
67300;Laerm;57658;51.436;5.980;2022-12-16T00:39:29;30.68;28.85;32.41;;
67300;Laerm;57658;51.436;5.980;2022-12-16T00:39:39;30.06;28.48;32.93;;
67300;Laerm;57658;51.436;5.980;2022-12-16T00:39:49;29.56;27.97;31.35;;
67300;Laerm;57658;51.436;5.980;2022-12-16T00:39:59;29.65;28.66;31.40;;
67300;Laerm;57658;51.436;5.980;2022-12-16T00:40:10;29.44;28.17;30.68;;
67300;Laerm;57658;51.436;5.980;2022-12-16T00:40:20;29.46;27.99;31.50;;
67300;Laerm;57658;51.436;5.980;2022-12-16T00:40:30;29.43;27.94;31.29;;
67300;Laerm;57658;51.436;5.980;2022-12-16T00:40:41;29.82;28.66;31.85;;
67300;Laerm;57658;51.436;5.980;2022-12-16T00:40:52;29.61;28.41;30.96;;
67300;Laerm;57658;51.436;5.980;2022-12-16T00:41:02;29.99;28.03;31.57;;
67300;Laerm;57658;51.436;5.980;2022-12-16T00:41:12;31.35;29.86;32.67;;
67300;Laerm;57658;51.436;5.980;2022-12-16T00:41:23;31.40;29.84;32.57;;
67300;Laerm;57658;51.436;5.980;2022-12-16T00:41:33;29.96;28.49;32.79;;
67300;Laerm;57658;51.436;5.980;2022-12-16T00:41:43;29.80;28.50;31.37;;
67300;Laerm;57658;51.436;5.980;2022-12-16T00:41:54;29.77;28.59;31.38;;
67300;Laerm;57658;51.436;5.980;2022-12-16T00:42:04;30.18;28.91;32.31;;
67300;Laerm;57658;51.436;5.980;2022-12-16T00:42:14;31.42;29.25;33.60;;
67300;Laerm;57658;51.436;5.980;2022-12-16T00:42:24;31.57;29.88;33.80;;
67300;Laerm;57658;51.436;5.980;2022-12-16T00:42:35;31.21;29.07;34.15;;
67300;Laerm;57658;51.436;5.980;2022-12-16T00:42:45;30.98;29.15;33.48;;
67300;Laerm;57658;51.436;5.980;2022-12-16T00:42:55;30.92;29.06;37.07;;
67300;Laerm;57658;51.436;5.980;2022-12-16T00:43:05;30.76;28.82;33.91;;
67300;Laerm;57658;51.436;5.980;2022-12-16T00:43:16;30.75;28.92;32.74;;
67300;Laerm;57658;51.436;5.980;2022-12-16T00:43:26;30.64;28.92;32.74;;
67300;Laerm;57658;51.436;5.980;2022-12-16T00:43:36;30.70;28.99;32.39;;
67300;Laerm;57658;51.436;5.980;2022-12-16T00:43:47;30.71;29.24;32.90;;
67300;Laerm;57658;51.436;5.980;2022-12-16T00:43:57;30.08;28.53;32.26;;
67300;Laerm;57658;51.436;5.980;2022-12-16T00:44:07;29.62;28.39;30.78;;
67300;Laerm;57658;51.436;5.980;2022-12-16T00:44:18;29.66;28.24;31.92;;
67300;Laerm;57658;51.436;5.980;2022-12-16T00:44:28;29.92;28.41;31.41;;
67300;Laerm;57658;51.436;5.980;2022-12-16T00:44:38;30.03;28.62;31.99;;
67300;Laerm;57658;51.436;5.980;2022-12-16T00:44:48;29.78;28.70;31.16;;
67300;Laerm;57658;51.436;5.980;2022-12-16T00:44:59;29.76;28.59;31.42;;
67300;Laerm;57658;51.436;5.980;2022-12-16T00:45:09;29.77;28.45;30.81;;
67300;Laerm;57658;51.436;5.980;2022-12-16T00:45:19;30.62;29.29;31.88;;
67300;Laerm;57658;51.436;5.980;2022-12-16T00:45:30;30.71;29.40;32.86;;
67300;Laerm;57658;51.436;5.980;2022-12-16T00:45:40;30.23;28.34;34.44;;
67300;Laerm;57658;51.436;5.980;2022-12-16T00:45:51;30.04;28.59;32.75;;
67300;Laerm;57658;51.436;5.980;2022-12-16T00:46:01;30.03;28.95;31.24;;
67300;Laerm;57658;51.436;5.980;2022-12-16T00:46:11;30.31;28.77;32.33;;
67300;Laerm;57658;51.436;5.980;2022-12-16T00:46:21;30.31;28.75;33.68;;
67300;Laerm;57658;51.436;5.980;2022-12-16T00:46:32;30.34;28.20;36.67;;
67300;Laerm;57658;51.436;5.980;2022-12-16T00:46:42;30.05;28.84;32.94;;
67300;Laerm;57658;51.436;5.980;2022-12-16T00:46:52;30.17;28.62;33.54;;
67300;Laerm;57658;51.436;5.980;2022-12-16T00:47:02;30.45;28.72;34.09;;
67300;Laerm;57658;51.436;5.980;2022-12-16T00:47:13;30.82;28.99;39.01;;
67300;Laerm;57658;51.436;5.980;2022-12-16T00:47:23;33.20;28.80;50.14;;
67300;Laerm;57658;51.436;5.980;2022-12-16T00:47:33;31.26;29.27;33.56;;
67300;Laerm;57658;51.436;5.980;2022-12-16T00:47:43;31.47;29.22;39.52;;
67300;Laerm;57658;51.436;5.980;2022-12-16T00:47:54;30.70;29.00;33.17;;
67300;Laerm;57658;51.436;5.980;2022-12-16T00:48:04;32.97;29.33;49.00;;
67300;Laerm;57658;51.436;5.980;2022-12-16T00:48:15;38.54;32.05;47.10;;
67300;Laerm;57658;51.436;5.980;2022-12-16T00:48:25;52.77;40.88;62.83;;
67300;Laerm;57658;51.436;5.980;2022-12-16T00:48:36;54.80;41.56;61.13;;
67300;Laerm;57658;51.436;5.980;2022-12-16T00:48:46;39.30;35.49;47.49;;
67300;Laerm;57658;51.436;5.980;2022-12-16T00:48:56;33.41;30.61;36.93;;
67300;Laerm;57658;51.436;5.980;2022-12-16T00:49:07;31.10;29.57;34.80;;
67300;Laerm;57658;51.436;5.980;2022-12-16T00:49:17;30.56;28.81;32.43;;
67300;Laerm;57658;51.436;5.980;2022-12-16T00:49:27;29.88;28.31;32.30;;
67300;Laerm;57658;51.436;5.980;2022-12-16T00:49:37;30.31;28.63;32.28;;
67300;Laerm;57658;51.436;5.980;2022-12-16T00:49:48;32.22;29.83;35.06;;
67300;Laerm;57658;51.436;5.980;2022-12-16T00:49:58;30.65;28.99;33.13;;
67300;Laerm;57658;51.436;5.980;2022-12-16T00:50:08;30.52;28.93;32.84;;
67300;Laerm;57658;51.436;5.980;2022-12-16T00:50:18;29.87;28.30;31.35;;
67300;Laerm;57658;51.436;5.980;2022-12-16T00:50:29;29.57;28.20;30.96;;
67300;Laerm;57658;51.436;5.980;2022-12-16T00:50:40;29.49;28.07;32.15;;
67300;Laerm;57658;51.436;5.980;2022-12-16T00:50:51;29.29;28.23;30.59;;
67300;Laerm;57658;51.436;5.980;2022-12-16T00:51:02;29.32;27.92;30.87;;
67300;Laerm;57658;51.436;5.980;2022-12-16T00:51:12;29.63;28.33;31.13;;
67300;Laerm;57658;51.436;5.980;2022-12-16T00:51:23;29.71;28.26;31.12;;
67300;Laerm;57658;51.436;5.980;2022-12-16T00:51:33;30.15;28.94;31.95;;
67300;Laerm;57658;51.436;5.980;2022-12-16T00:51:43;29.86;28.50;31.47;;
67300;Laerm;57658;51.436;5.980;2022-12-16T00:51:54;29.43;27.78;30.72;;
67300;Laerm;57658;51.436;5.980;2022-12-16T00:52:04;29.31;28.13;30.82;;
67300;Laerm;57658;51.436;5.980;2022-12-16T00:52:14;29.24;27.89;31.96;;
67300;Laerm;57658;51.436;5.980;2022-12-16T00:52:24;29.64;28.19;31.51;;
67300;Laerm;57658;51.436;5.980;2022-12-16T00:52:35;30.08;28.59;31.99;;
67300;Laerm;57658;51.436;5.980;2022-12-16T00:52:46;30.04;28.78;31.51;;
67300;Laerm;57658;51.436;5.980;2022-12-16T00:52:56;30.07;28.35;32.41;;
67300;Laerm;57658;51.436;5.980;2022-12-16T00:53:07;29.83;28.52;31.41;;
67300;Laerm;57658;51.436;5.980;2022-12-16T00:53:18;29.70;27.76;32.59;;
67300;Laerm;57658;51.436;5.980;2022-12-16T00:53:28;29.37;28.23;30.54;;
67300;Laerm;57658;51.436;5.980;2022-12-16T00:53:38;29.56;28.39;31.36;;
67300;Laerm;57658;51.436;5.980;2022-12-16T00:53:49;29.75;28.66;31.48;;
67300;Laerm;57658;51.436;5.980;2022-12-16T00:53:59;29.97;28.67;31.41;;
67300;Laerm;57658;51.436;5.980;2022-12-16T00:54:09;29.97;28.57;31.17;;
67300;Laerm;57658;51.436;5.980;2022-12-16T00:54:20;29.92;28.42;35.46;;
67300;Laerm;57658;51.436;5.980;2022-12-16T00:54:30;30.81;29.18;34.16;;
67300;Laerm;57658;51.436;5.980;2022-12-16T00:54:40;30.99;28.95;35.53;;
67300;Laerm;57658;51.436;5.980;2022-12-16T00:54:51;31.04;29.40;33.10;;
67300;Laerm;57658;51.436;5.980;2022-12-16T00:55:01;30.69;29.18;33.45;;
67300;Laerm;57658;51.436;5.980;2022-12-16T00:55:11;30.88;29.26;32.31;;
67300;Laerm;57658;51.436;5.980;2022-12-16T00:55:22;31.34;29.28;33.53;;
67300;Laerm;57658;51.436;5.980;2022-12-16T00:55:32;31.32;29.19;33.60;;
67300;Laerm;57658;51.436;5.980;2022-12-16T00:55:42;30.75;28.64;33.36;;
67300;Laerm;57658;51.436;5.980;2022-12-16T00:56:05;30.75;29.05;32.63;;
67300;Laerm;57658;51.436;5.980;2022-12-16T00:56:16;30.02;28.16;31.90;;
67300;Laerm;57658;51.436;5.980;2022-12-16T00:56:29;29.32;28.04;31.70;;
67300;Laerm;57658;51.436;5.980;2022-12-16T00:56:39;29.50;28.31;32.32;;
67300;Laerm;57658;51.436;5.980;2022-12-16T00:56:50;29.51;28.19;32.35;;
67300;Laerm;57658;51.436;5.980;2022-12-16T00:57:00;29.34;27.89;30.66;;
67300;Laerm;57658;51.436;5.980;2022-12-16T00:57:10;29.52;28.39;31.45;;
67300;Laerm;57658;51.436;5.980;2022-12-16T00:57:21;29.49;28.15;32.21;;
67300;Laerm;57658;51.436;5.980;2022-12-16T00:57:31;29.45;27.88;31.20;;
67300;Laerm;57658;51.436;5.980;2022-12-16T00:57:42;30.21;28.49;35.72;;
67300;Laerm;57658;51.436;5.980;2022-12-16T00:57:52;30.14;28.26;37.45;;
67300;Laerm;57658;51.436;5.980;2022-12-16T00:58:02;29.51;28.13;30.72;;
67300;Laerm;57658;51.436;5.980;2022-12-16T00:58:12;30.23;28.42;32.36;;
67300;Laerm;57658;51.436;5.980;2022-12-16T00:58:23;29.72;28.41;31.19;;
67300;Laerm;57658;51.436;5.980;2022-12-16T00:58:33;29.25;27.70;30.57;;
67300;Laerm;57658;51.436;5.980;2022-12-16T00:58:44;29.11;27.97;30.18;;
67300;Laerm;57658;51.436;5.980;2022-12-16T00:58:54;29.14;27.93;30.39;;
67300;Laerm;57658;51.436;5.980;2022-12-16T00:59:05;29.22;28.19;30.58;;
67300;Laerm;57658;51.436;5.980;2022-12-16T00:59:15;29.20;27.90;32.74;;